sensor_id;sensor_type;location;lat;lon;timestamp;temperature;humidity
13928;DHT22;7036;50.834;4.718;2023-05-17T00:00:30;19.90;55.70
13928;DHT22;7036;50.834;4.718;2023-05-17T00:02:57;19.90;55.50
13928;DHT22;7036;50.834;4.718;2023-05-17T00:05:25;19.90;55.60
13928;DHT22;7036;50.834;4.718;2023-05-17T00:07:52;19.90;55.60
13928;DHT22;7036;50.834;4.718;2023-05-17T00:10:20;19.90;55.70
13928;DHT22;7036;50.834;4.718;2023-05-17T00:12:47;19.90;55.70
13928;DHT22;7036;50.834;4.718;2023-05-17T00:15:15;19.90;55.60
13928;DHT22;7036;50.834;4.718;2023-05-17T00:17:42;19.90;55.60
13928;DHT22;7036;50.834;4.718;2023-05-17T00:20:09;19.90;55.60
13928;DHT22;7036;50.834;4.718;2023-05-17T00:22:36;19.90;55.60
13928;DHT22;7036;50.834;4.718;2023-05-17T00:25:04;19.90;55.70
13928;DHT22;7036;50.834;4.718;2023-05-17T00:27:32;19.90;55.60
13928;DHT22;7036;50.834;4.718;2023-05-17T00:29:59;19.90;55.60
13928;DHT22;7036;50.834;4.718;2023-05-17T00:32:26;19.90;55.70
13928;DHT22;7036;50.834;4.718;2023-05-17T00:34:54;19.90;55.00
13928;DHT22;7036;50.834;4.718;2023-05-17T00:37:22;19.90;55.60
13928;DHT22;7036;50.834;4.718;2023-05-17T00:39:50;19.90;56.10
13928;DHT22;7036;50.834;4.718;2023-05-17T00:42:17;19.80;55.50
13928;DHT22;7036;50.834;4.718;2023-05-17T00:44:45;19.90;55.70
13928;DHT22;7036;50.834;4.718;2023-05-17T00:47:13;19.90;55.70
13928;DHT22;7036;50.834;4.718;2023-05-17T00:49:40;19.90;55.60
13928;DHT22;7036;50.834;4.718;2023-05-17T00:52:07;19.90;55.60
13928;DHT22;7036;50.834;4.718;2023-05-17T00:54:35;19.90;55.70
13928;DHT22;7036;50.834;4.718;2023-05-17T00:57:03;19.80;55.50
13928;DHT22;7036;50.834;4.718;2023-05-17T00:59:31;19.90;55.40
13928;DHT22;7036;50.834;4.718;2023-05-17T01:02:00;19.80;55.60
13928;DHT22;7036;50.834;4.718;2023-05-17T01:04:26;19.80;55.60
13928;DHT22;7036;50.834;4.718;2023-05-17T01:06:54;19.80;55.60
13928;DHT22;7036;50.834;4.718;2023-05-17T01:09:21;19.80;55.60
13928;DHT22;7036;50.834;4.718;2023-05-17T01:14:40;19.80;55.70
13928;DHT22;7036;50.834;4.718;2023-05-17T01:17:15;19.80;55.60
13928;DHT22;7036;50.834;4.718;2023-05-17T01:27:27;19.80;55.80
13928;DHT22;7036;50.834;4.718;2023-05-17T01:29:55;19.70;55.80
13928;DHT22;7036;50.834;4.718;2023-05-17T01:32:22;19.70;55.70
13928;DHT22;7036;50.834;4.718;2023-05-17T01:34:49;19.80;55.70
13928;DHT22;7036;50.834;4.718;2023-05-17T01:37:16;19.80;55.70
13928;DHT22;7036;50.834;4.718;2023-05-17T01:39:44;19.70;55.80
13928;DHT22;7036;50.834;4.718;2023-05-17T01:42:26;19.70;55.60
13928;DHT22;7036;50.834;4.718;2023-05-17T01:45:05;19.70;55.60
13928;DHT22;7036;50.834;4.718;2023-05-17T01:47:39;19.70;55.60
13928;DHT22;7036;50.834;4.718;2023-05-17T01:50:06;19.70;55.60
13928;DHT22;7036;50.834;4.718;2023-05-17T01:55:21;19.70;55.60
13928;DHT22;7036;50.834;4.718;2023-05-17T01:57:44;19.70;55.70
13928;DHT22;7036;50.834;4.718;2023-05-17T02:00:12;19.70;55.20
13928;DHT22;7036;50.834;4.718;2023-05-17T02:02:40;19.70;55.80
13928;DHT22;7036;50.834;4.718;2023-05-17T02:05:07;19.70;55.70
13928;DHT22;7036;50.834;4.718;2023-05-17T02:07:35;19.70;55.80
13928;DHT22;7036;50.834;4.718;2023-05-17T02:10:03;19.70;55.70
13928;DHT22;7036;50.834;4.718;2023-05-17T02:12:30;19.70;55.60
13928;DHT22;7036;50.834;4.718;2023-05-17T02:14:58;19.70;56.40
13928;DHT22;7036;50.834;4.718;2023-05-17T02:17:26;19.70;55.60
13928;DHT22;7036;50.834;4.718;2023-05-17T02:19:53;19.70;55.60
13928;DHT22;7036;50.834;4.718;2023-05-17T02:22:21;19.70;55.60
13928;DHT22;7036;50.834;4.718;2023-05-17T02:24:48;19.70;55.60
13928;DHT22;7036;50.834;4.718;2023-05-17T02:27:15;19.70;55.70
13928;DHT22;7036;50.834;4.718;2023-05-17T02:29:43;19.60;55.20
13928;DHT22;7036;50.834;4.718;2023-05-17T02:32:10;19.60;55.60
13928;DHT22;7036;50.834;4.718;2023-05-17T02:34:37;19.60;55.60
13928;DHT22;7036;50.834;4.718;2023-05-17T02:37:06;19.60;55.60
13928;DHT22;7036;50.834;4.718;2023-05-17T02:39:33;19.60;55.60
13928;DHT22;7036;50.834;4.718;2023-05-17T02:42:00;19.60;55.60
13928;DHT22;7036;50.834;4.718;2023-05-17T02:44:28;19.60;55.70
13928;DHT22;7036;50.834;4.718;2023-05-17T02:46:55;19.60;55.60
13928;DHT22;7036;50.834;4.718;2023-05-17T02:49:23;19.60;55.60
13928;DHT22;7036;50.834;4.718;2023-05-17T02:51:51;19.60;55.70
13928;DHT22;7036;50.834;4.718;2023-05-17T02:54:20;19.60;55.50
13928;DHT22;7036;50.834;4.718;2023-05-17T02:56:46;19.60;55.50
13928;DHT22;7036;50.834;4.718;2023-05-17T02:59:14;19.60;56.20
13928;DHT22;7036;50.834;4.718;2023-05-17T03:01:42;19.60;55.40
13928;DHT22;7036;50.834;4.718;2023-05-17T03:04:09;19.60;55.50
13928;DHT22;7036;50.834;4.718;2023-05-17T03:06:37;19.60;55.50
13928;DHT22;7036;50.834;4.718;2023-05-17T03:09:04;19.60;55.50
13928;DHT22;7036;50.834;4.718;2023-05-17T03:11:32;19.60;55.70
13928;DHT22;7036;50.834;4.718;2023-05-17T03:13:59;19.60;55.50
13928;DHT22;7036;50.834;4.718;2023-05-17T03:16:27;19.50;56.00
13928;DHT22;7036;50.834;4.718;2023-05-17T03:18:55;19.60;55.60
13928;DHT22;7036;50.834;4.718;2023-05-17T03:21:22;19.60;55.50
13928;DHT22;7036;50.834;4.718;2023-05-17T03:23:50;19.50;55.60
13928;DHT22;7036;50.834;4.718;2023-05-17T03:26:18;19.60;55.30
13928;DHT22;7036;50.834;4.718;2023-05-17T03:28:46;19.50;55.60
13928;DHT22;7036;50.834;4.718;2023-05-17T03:31:13;19.50;55.50
13928;DHT22;7036;50.834;4.718;2023-05-17T03:33:41;19.60;55.80
13928;DHT22;7036;50.834;4.718;2023-05-17T03:36:09;19.50;55.60
13928;DHT22;7036;50.834;4.718;2023-05-17T03:38:37;19.60;56.30
13928;DHT22;7036;50.834;4.718;2023-05-17T03:41:05;19.50;56.20
13928;DHT22;7036;50.834;4.718;2023-05-17T03:43:33;19.50;55.60
13928;DHT22;7036;50.834;4.718;2023-05-17T03:46:01;19.50;55.70
13928;DHT22;7036;50.834;4.718;2023-05-17T03:48:29;19.50;55.60
13928;DHT22;7036;50.834;4.718;2023-05-17T03:50:57;19.50;55.60
13928;DHT22;7036;50.834;4.718;2023-05-17T03:53:24;19.50;55.50
13928;DHT22;7036;50.834;4.718;2023-05-17T03:55:51;19.50;55.40
13928;DHT22;7036;50.834;4.718;2023-05-17T03:58:19;19.50;56.20
13928;DHT22;7036;50.834;4.718;2023-05-17T04:00:47;19.50;55.50
13928;DHT22;7036;50.834;4.718;2023-05-17T04:03:15;19.50;55.50
13928;DHT22;7036;50.834;4.718;2023-05-17T04:05:43;19.50;55.50
13928;DHT22;7036;50.834;4.718;2023-05-17T04:08:11;19.50;55.50
13928;DHT22;7036;50.834;4.718;2023-05-17T04:10:39;19.50;55.50
13928;DHT22;7036;50.834;4.718;2023-05-17T04:13:07;19.50;55.40
13928;DHT22;7036;50.834;4.718;2023-05-17T04:15:34;19.40;56.00
13928;DHT22;7036;50.834;4.718;2023-05-17T04:18:02;19.40;55.60
13928;DHT22;7036;50.834;4.718;2023-05-17T04:20:30;19.40;55.60
13928;DHT22;7036;50.834;4.718;2023-05-17T04:22:58;19.50;55.60
13928;DHT22;7036;50.834;4.718;2023-05-17T04:25:26;19.40;55.60
13928;DHT22;7036;50.834;4.718;2023-05-17T04:27:54;19.40;55.60
13928;DHT22;7036;50.834;4.718;2023-05-17T04:30:22;19.40;55.60
13928;DHT22;7036;50.834;4.718;2023-05-17T04:32:50;19.40;55.60
13928;DHT22;7036;50.834;4.718;2023-05-17T04:35:18;19.40;55.50
13928;DHT22;7036;50.834;4.718;2023-05-17T04:37:45;19.40;55.40
13928;DHT22;7036;50.834;4.718;2023-05-17T04:40:12;19.40;55.50
13928;DHT22;7036;50.834;4.718;2023-05-17T04:42:39;19.40;55.40
13928;DHT22;7036;50.834;4.718;2023-05-17T04:45:07;19.40;55.40
13928;DHT22;7036;50.834;4.718;2023-05-17T04:47:35;19.40;55.60
13928;DHT22;7036;50.834;4.718;2023-05-17T04:50:03;19.40;55.60
13928;DHT22;7036;50.834;4.718;2023-05-17T04:52:30;19.40;55.50
13928;DHT22;7036;50.834;4.718;2023-05-17T04:54:57;19.40;55.40
13928;DHT22;7036;50.834;4.718;2023-05-17T04:57:24;19.40;54.90
13928;DHT22;7036;50.834;4.718;2023-05-17T04:59:52;19.40;55.60
13928;DHT22;7036;50.834;4.718;2023-05-17T05:02:20;19.40;55.60
13928;DHT22;7036;50.834;4.718;2023-05-17T05:04:47;19.40;55.50
13928;DHT22;7036;50.834;4.718;2023-05-17T05:07:16;19.40;55.70
13928;DHT22;7036;50.834;4.718;2023-05-17T05:09:43;19.40;55.60
13928;DHT22;7036;50.834;4.718;2023-05-17T05:12:11;19.40;55.70
13928;DHT22;7036;50.834;4.718;2023-05-17T05:14:39;19.40;55.70
13928;DHT22;7036;50.834;4.718;2023-05-17T05:17:07;19.40;55.70
13928;DHT22;7036;50.834;4.718;2023-05-17T05:19:35;19.30;55.80
13928;DHT22;7036;50.834;4.718;2023-05-17T05:22:03;19.30;55.70
13928;DHT22;7036;50.834;4.718;2023-05-17T05:24:31;19.40;55.80
13928;DHT22;7036;50.834;4.718;2023-05-17T05:26:59;19.30;55.80
13928;DHT22;7036;50.834;4.718;2023-05-17T05:29:27;19.40;55.80
13928;DHT22;7036;50.834;4.718;2023-05-17T05:31:55;19.40;55.80
13928;DHT22;7036;50.834;4.718;2023-05-17T05:34:23;19.30;55.80
13928;DHT22;7036;50.834;4.718;2023-05-17T05:36:50;19.30;55.70
13928;DHT22;7036;50.834;4.718;2023-05-17T05:39:18;19.40;55.90
13928;DHT22;7036;50.834;4.718;2023-05-17T05:41:46;19.40;55.90
13928;DHT22;7036;50.834;4.718;2023-05-17T05:44:13;19.30;55.80
13928;DHT22;7036;50.834;4.718;2023-05-17T05:46:40;19.40;55.20
13928;DHT22;7036;50.834;4.718;2023-05-17T05:49:08;19.30;55.90
13928;DHT22;7036;50.834;4.718;2023-05-17T05:51:36;19.30;55.90
13928;DHT22;7036;50.834;4.718;2023-05-17T05:54:04;19.30;55.90
13928;DHT22;7036;50.834;4.718;2023-05-17T05:56:32;19.40;56.00
13928;DHT22;7036;50.834;4.718;2023-05-17T05:59:00;19.30;56.00
13928;DHT22;7036;50.834;4.718;2023-05-17T06:01:28;19.40;56.00
13928;DHT22;7036;50.834;4.718;2023-05-17T06:03:55;19.40;55.90
13928;DHT22;7036;50.834;4.718;2023-05-17T06:06:23;19.40;56.00
13928;DHT22;7036;50.834;4.718;2023-05-17T06:08:51;19.40;56.60
13928;DHT22;7036;50.834;4.718;2023-05-17T06:11:19;19.40;55.80
13928;DHT22;7036;50.834;4.718;2023-05-17T06:13:47;19.40;55.90
13928;DHT22;7036;50.834;4.718;2023-05-17T06:16:13;19.40;55.90
13928;DHT22;7036;50.834;4.718;2023-05-17T06:18:41;19.40;56.10
13928;DHT22;7036;50.834;4.718;2023-05-17T06:21:09;19.40;56.10
13928;DHT22;7036;50.834;4.718;2023-05-17T06:23:38;19.40;56.10
13928;DHT22;7036;50.834;4.718;2023-05-17T06:26:05;19.40;56.10
13928;DHT22;7036;50.834;4.718;2023-05-17T06:28:33;19.40;56.10
13928;DHT22;7036;50.834;4.718;2023-05-17T06:31:01;19.50;56.10
13928;DHT22;7036;50.834;4.718;2023-05-17T06:33:29;19.50;56.20
13928;DHT22;7036;50.834;4.718;2023-05-17T06:35:57;19.40;56.10
13928;DHT22;7036;50.834;4.718;2023-05-17T06:38:24;19.40;56.00
13928;DHT22;7036;50.834;4.718;2023-05-17T06:40:53;19.50;56.40
13928;DHT22;7036;50.834;4.718;2023-05-17T06:43:20;19.50;56.40
13928;DHT22;7036;50.834;4.718;2023-05-17T06:45:48;19.40;56.30
13928;DHT22;7036;50.834;4.718;2023-05-17T06:48:16;19.40;56.20
13928;DHT22;7036;50.834;4.718;2023-05-17T06:50:43;19.40;56.20
13928;DHT22;7036;50.834;4.718;2023-05-17T06:53:11;19.30;56.40
13928;DHT22;7036;50.834;4.718;2023-05-17T06:55:39;19.30;56.50
13928;DHT22;7036;50.834;4.718;2023-05-17T06:58:06;19.30;56.40
13928;DHT22;7036;50.834;4.718;2023-05-17T07:00:33;19.30;56.50
13928;DHT22;7036;50.834;4.718;2023-05-17T07:03:01;19.30;56.70
13928;DHT22;7036;50.834;4.718;2023-05-17T07:05:28;19.30;56.60
13928;DHT22;7036;50.834;4.718;2023-05-17T07:07:56;19.30;56.70
13928;DHT22;7036;50.834;4.718;2023-05-17T07:10:22;19.40;56.70
13928;DHT22;7036;50.834;4.718;2023-05-17T07:12:49;19.40;56.80
13928;DHT22;7036;50.834;4.718;2023-05-17T07:15:17;19.40;56.90
13928;DHT22;7036;50.834;4.718;2023-05-17T07:17:44;19.40;56.90
13928;DHT22;7036;50.834;4.718;2023-05-17T07:20:11;19.40;56.80
13928;DHT22;7036;50.834;4.718;2023-05-17T07:22:38;19.40;56.80
13928;DHT22;7036;50.834;4.718;2023-05-17T07:25:06;19.50;56.80
13928;DHT22;7036;50.834;4.718;2023-05-17T07:27:33;19.50;56.80
13928;DHT22;7036;50.834;4.718;2023-05-17T07:30:01;19.50;57.00
13928;DHT22;7036;50.834;4.718;2023-05-17T07:32:29;19.60;56.40
13928;DHT22;7036;50.834;4.718;2023-05-17T07:34:57;19.60;57.00
13928;DHT22;7036;50.834;4.718;2023-05-17T07:37:24;19.60;56.80
13928;DHT22;7036;50.834;4.718;2023-05-17T07:39:52;19.60;57.70
13928;DHT22;7036;50.834;4.718;2023-05-17T07:42:20;19.60;57.00
13928;DHT22;7036;50.834;4.718;2023-05-17T07:44:47;19.60;56.80
13928;DHT22;7036;50.834;4.718;2023-05-17T07:47:15;19.60;57.00
13928;DHT22;7036;50.834;4.718;2023-05-17T07:49:44;19.60;57.00
13928;DHT22;7036;50.834;4.718;2023-05-17T07:52:12;19.60;56.80
13928;DHT22;7036;50.834;4.718;2023-05-17T07:54:39;19.60;56.60
13928;DHT22;7036;50.834;4.718;2023-05-17T07:57:07;19.50;56.60
13928;DHT22;7036;50.834;4.718;2023-05-17T07:59:34;19.50;56.50
13928;DHT22;7036;50.834;4.718;2023-05-17T08:02:02;19.40;56.40
13928;DHT22;7036;50.834;4.718;2023-05-17T08:04:30;19.40;56.60
13928;DHT22;7036;50.834;4.718;2023-05-17T08:06:58;19.50;56.60
13928;DHT22;7036;50.834;4.718;2023-05-17T08:09:25;19.50;56.50
13928;DHT22;7036;50.834;4.718;2023-05-17T08:11:53;19.60;56.70
13928;DHT22;7036;50.834;4.718;2023-05-17T08:14:21;19.60;56.80
13928;DHT22;7036;50.834;4.718;2023-05-17T08:16:48;19.60;56.80
13928;DHT22;7036;50.834;4.718;2023-05-17T08:19:16;19.70;56.90
13928;DHT22;7036;50.834;4.718;2023-05-17T08:21:43;19.70;56.70
13928;DHT22;7036;50.834;4.718;2023-05-17T08:24:11;19.70;56.80
13928;DHT22;7036;50.834;4.718;2023-05-17T08:26:39;19.80;56.80
13928;DHT22;7036;50.834;4.718;2023-05-17T08:29:07;19.70;56.60
13928;DHT22;7036;50.834;4.718;2023-05-17T08:31:35;19.80;56.70
13928;DHT22;7036;50.834;4.718;2023-05-17T08:34:02;19.80;56.70
13928;DHT22;7036;50.834;4.718;2023-05-17T08:36:29;19.80;56.80
13928;DHT22;7036;50.834;4.718;2023-05-17T08:38:57;19.80;56.90
13928;DHT22;7036;50.834;4.718;2023-05-17T08:41:24;19.80;56.70
13928;DHT22;7036;50.834;4.718;2023-05-17T08:43:52;19.90;56.80
13928;DHT22;7036;50.834;4.718;2023-05-17T08:46:20;19.90;56.90
13928;DHT22;7036;50.834;4.718;2023-05-17T08:48:50;19.90;56.80
13928;DHT22;7036;50.834;4.718;2023-05-17T08:51:20;19.90;57.00
13928;DHT22;7036;50.834;4.718;2023-05-17T08:53:48;19.90;57.00
13928;DHT22;7036;50.834;4.718;2023-05-17T08:56:15;19.90;56.90
13928;DHT22;7036;50.834;4.718;2023-05-17T08:58:42;19.90;56.80
13928;DHT22;7036;50.834;4.718;2023-05-17T09:01:09;19.90;56.80
13928;DHT22;7036;50.834;4.718;2023-05-17T09:03:36;19.90;56.80
13928;DHT22;7036;50.834;4.718;2023-05-17T09:06:04;19.90;56.90
13928;DHT22;7036;50.834;4.718;2023-05-17T09:08:32;19.90;56.80
13928;DHT22;7036;50.834;4.718;2023-05-17T09:10:59;19.90;56.70
13928;DHT22;7036;50.834;4.718;2023-05-17T09:13:27;19.90;56.80
13928;DHT22;7036;50.834;4.718;2023-05-17T09:15:54;19.90;56.70
13928;DHT22;7036;50.834;4.718;2023-05-17T09:18:29;19.90;56.80
13928;DHT22;7036;50.834;4.718;2023-05-17T09:20:56;19.90;56.70
13928;DHT22;7036;50.834;4.718;2023-05-17T09:23:23;19.90;56.80
13928;DHT22;7036;50.834;4.718;2023-05-17T09:25:50;19.90;57.30
13928;DHT22;7036;50.834;4.718;2023-05-17T09:28:18;19.90;56.70
13928;DHT22;7036;50.834;4.718;2023-05-17T09:30:47;19.90;56.60
13928;DHT22;7036;50.834;4.718;2023-05-17T09:33:13;19.90;56.60
13928;DHT22;7036;50.834;4.718;2023-05-17T09:35:40;19.90;56.60
13928;DHT22;7036;50.834;4.718;2023-05-17T09:38:08;19.90;56.60
13928;DHT22;7036;50.834;4.718;2023-05-17T09:40:45;19.90;56.80
13928;DHT22;7036;50.834;4.718;2023-05-17T09:43:12;19.90;56.60
13928;DHT22;7036;50.834;4.718;2023-05-17T09:45:39;19.90;56.70
13928;DHT22;7036;50.834;4.718;2023-05-17T09:48:14;19.90;56.50
13928;DHT22;7036;50.834;4.718;2023-05-17T09:50:49;19.90;56.60
13928;DHT22;7036;50.834;4.718;2023-05-17T09:53:31;19.90;56.60
13928;DHT22;7036;50.834;4.718;2023-05-17T09:55:55;19.90;56.50
13928;DHT22;7036;50.834;4.718;2023-05-17T09:58:23;19.90;56.70
13928;DHT22;7036;50.834;4.718;2023-05-17T10:00:51;19.90;56.50
13928;DHT22;7036;50.834;4.718;2023-05-17T10:03:19;19.90;56.80
13928;DHT22;7036;50.834;4.718;2023-05-17T10:05:46;19.90;56.50
13928;DHT22;7036;50.834;4.718;2023-05-17T10:08:13;19.90;56.50
13928;DHT22;7036;50.834;4.718;2023-05-17T10:10:41;19.90;57.20
13928;DHT22;7036;50.834;4.718;2023-05-17T10:13:12;19.90;56.60
13928;DHT22;7036;50.834;4.718;2023-05-17T10:15:39;19.90;56.50
13928;DHT22;7036;50.834;4.718;2023-05-17T10:18:07;19.90;56.60
13928;DHT22;7036;50.834;4.718;2023-05-17T10:20:34;20.00;56.50
13928;DHT22;7036;50.834;4.718;2023-05-17T10:23:02;20.00;57.00
13928;DHT22;7036;50.834;4.718;2023-05-17T10:25:30;20.00;56.60
13928;DHT22;7036;50.834;4.718;2023-05-17T10:27:58;20.00;56.60
13928;DHT22;7036;50.834;4.718;2023-05-17T10:30:27;20.00;56.60
13928;DHT22;7036;50.834;4.718;2023-05-17T10:32:54;20.00;56.50
13928;DHT22;7036;50.834;4.718;2023-05-17T10:35:21;20.00;56.50
13928;DHT22;7036;50.834;4.718;2023-05-17T10:37:49;20.00;56.40
13928;DHT22;7036;50.834;4.718;2023-05-17T10:40:17;20.00;56.50
13928;DHT22;7036;50.834;4.718;2023-05-17T10:42:46;20.00;56.50
13928;DHT22;7036;50.834;4.718;2023-05-17T10:45:13;20.00;56.40
13928;DHT22;7036;50.834;4.718;2023-05-17T10:47:40;20.00;56.30
13928;DHT22;7036;50.834;4.718;2023-05-17T10:50:11;20.00;56.30
13928;DHT22;7036;50.834;4.718;2023-05-17T10:52:37;20.00;56.30
13928;DHT22;7036;50.834;4.718;2023-05-17T10:55:05;20.00;56.40
13928;DHT22;7036;50.834;4.718;2023-05-17T10:57:35;20.00;56.20
13928;DHT22;7036;50.834;4.718;2023-05-17T11:00:02;20.00;56.30
13928;DHT22;7036;50.834;4.718;2023-05-17T11:02:30;20.00;56.30
13928;DHT22;7036;50.834;4.718;2023-05-17T11:04:58;20.00;56.30
13928;DHT22;7036;50.834;4.718;2023-05-17T11:07:26;20.00;56.20
13928;DHT22;7036;50.834;4.718;2023-05-17T11:12:35;20.00;56.20
13928;DHT22;7036;50.834;4.718;2023-05-17T11:15:08;20.00;56.20
13928;DHT22;7036;50.834;4.718;2023-05-17T11:25:38;20.10;56.10
13928;DHT22;7036;50.834;4.718;2023-05-17T11:28:08;20.10;56.00
13928;DHT22;7036;50.834;4.718;2023-05-17T11:30:38;20.10;56.00
13928;DHT22;7036;50.834;4.718;2023-05-17T11:33:05;20.10;56.00
13928;DHT22;7036;50.834;4.718;2023-05-17T11:35:33;20.10;56.00
13928;DHT22;7036;50.834;4.718;2023-05-17T11:38:22;20.10;56.10
13928;DHT22;7036;50.834;4.718;2023-05-17T11:40:49;20.10;56.00
13928;DHT22;7036;50.834;4.718;2023-05-17T11:43:16;20.10;56.10
13928;DHT22;7036;50.834;4.718;2023-05-17T11:45:50;20.10;56.20
13928;DHT22;7036;50.834;4.718;2023-05-17T11:48:17;20.10;56.00
13928;DHT22;7036;50.834;4.718;2023-05-17T11:50:45;20.10;56.10
13928;DHT22;7036;50.834;4.718;2023-05-17T11:53:13;20.10;56.00
13928;DHT22;7036;50.834;4.718;2023-05-17T11:55:43;20.20;56.10
13928;DHT22;7036;50.834;4.718;2023-05-17T11:58:10;20.20;56.10
13928;DHT22;7036;50.834;4.718;2023-05-17T12:00:37;20.20;56.10
13928;DHT22;7036;50.834;4.718;2023-05-17T12:03:17;20.20;56.10
13928;DHT22;7036;50.834;4.718;2023-05-17T12:05:44;20.20;56.00
13928;DHT22;7036;50.834;4.718;2023-05-17T12:08:13;20.20;56.30
13928;DHT22;7036;50.834;4.718;2023-05-17T12:10:47;20.20;56.20
13928;DHT22;7036;50.834;4.718;2023-05-17T12:13:13;20.20;56.10
13928;DHT22;7036;50.834;4.718;2023-05-17T12:15:43;20.20;56.40
13928;DHT22;7036;50.834;4.718;2023-05-17T12:18:09;20.20;56.40
13928;DHT22;7036;50.834;4.718;2023-05-17T12:20:37;20.20;56.40
13928;DHT22;7036;50.834;4.718;2023-05-17T12:23:05;20.20;56.60
13928;DHT22;7036;50.834;4.718;2023-05-17T12:25:32;20.20;56.60
13928;DHT22;7036;50.834;4.718;2023-05-17T12:30:40;20.20;56.50
13928;DHT22;7036;50.834;4.718;2023-05-17T12:33:08;20.20;56.50
13928;DHT22;7036;50.834;4.718;2023-05-17T12:35:36;20.20;54.00
13928;DHT22;7036;50.834;4.718;2023-05-17T12:38:03;20.10;51.60
13928;DHT22;7036;50.834;4.718;2023-05-17T12:40:30;20.10;51.40
13928;DHT22;7036;50.834;4.718;2023-05-17T12:43:00;20.00;50.30
13928;DHT22;7036;50.834;4.718;2023-05-17T12:45:26;19.90;49.80
13928;DHT22;7036;50.834;4.718;2023-05-17T12:47:54;20.00;48.80
13928;DHT22;7036;50.834;4.718;2023-05-17T12:50:30;19.90;49.10
13928;DHT22;7036;50.834;4.718;2023-05-17T12:52:56;19.90;50.10
13928;DHT22;7036;50.834;4.718;2023-05-17T12:55:24;20.10;50.90
13928;DHT22;7036;50.834;4.718;2023-05-17T12:57:52;20.00;50.70
13928;DHT22;7036;50.834;4.718;2023-05-17T13:00:19;20.00;51.30
13928;DHT22;7036;50.834;4.718;2023-05-17T13:02:48;20.10;51.30
13928;DHT22;7036;50.834;4.718;2023-05-17T13:05:17;20.10;51.20
13928;DHT22;7036;50.834;4.718;2023-05-17T13:07:44;20.00;49.20
13928;DHT22;7036;50.834;4.718;2023-05-17T13:10:25;20.00;48.60
13928;DHT22;7036;50.834;4.718;2023-05-17T13:12:57;20.00;48.50
13928;DHT22;7036;50.834;4.718;2023-05-17T13:15:25;20.00;48.80
13928;DHT22;7036;50.834;4.718;2023-05-17T13:17:49;20.00;50.00
13928;DHT22;7036;50.834;4.718;2023-05-17T13:20:16;20.00;49.90
13928;DHT22;7036;50.834;4.718;2023-05-17T13:22:47;20.10;49.80
13928;DHT22;7036;50.834;4.718;2023-05-17T13:25:13;20.10;50.30
13928;DHT22;7036;50.834;4.718;2023-05-17T13:27:40;20.10;50.40
13928;DHT22;7036;50.834;4.718;2023-05-17T13:30:14;20.10;51.60
13928;DHT22;7036;50.834;4.718;2023-05-17T13:32:40;20.10;50.90
13928;DHT22;7036;50.834;4.718;2023-05-17T13:35:08;20.20;51.30
13928;DHT22;7036;50.834;4.718;2023-05-17T13:37:36;20.20;51.30
13928;DHT22;7036;50.834;4.718;2023-05-17T13:40:04;20.20;51.10
13928;DHT22;7036;50.834;4.718;2023-05-17T13:42:32;20.20;51.30
13928;DHT22;7036;50.834;4.718;2023-05-17T13:45:00;20.20;51.30
13928;DHT22;7036;50.834;4.718;2023-05-17T13:47:27;20.20;51.40
13928;DHT22;7036;50.834;4.718;2023-05-17T13:49:54;20.20;51.60
13928;DHT22;7036;50.834;4.718;2023-05-17T13:52:21;20.20;51.70
13928;DHT22;7036;50.834;4.718;2023-05-17T13:54:48;20.20;51.70
13928;DHT22;7036;50.834;4.718;2023-05-17T13:57:16;20.30;52.00
13928;DHT22;7036;50.834;4.718;2023-05-17T13:59:43;20.30;51.90
13928;DHT22;7036;50.834;4.718;2023-05-17T14:02:11;20.30;51.80
13928;DHT22;7036;50.834;4.718;2023-05-17T14:04:39;20.20;50.90
13928;DHT22;7036;50.834;4.718;2023-05-17T14:07:07;20.30;51.00
13928;DHT22;7036;50.834;4.718;2023-05-17T14:09:34;20.20;50.80
13928;DHT22;7036;50.834;4.718;2023-05-17T14:12:02;20.30;51.60
13928;DHT22;7036;50.834;4.718;2023-05-17T14:14:30;20.30;51.80
13928;DHT22;7036;50.834;4.718;2023-05-17T14:16:56;20.30;51.60
13928;DHT22;7036;50.834;4.718;2023-05-17T14:19:23;20.30;51.70
13928;DHT22;7036;50.834;4.718;2023-05-17T14:21:51;20.30;51.90
13928;DHT22;7036;50.834;4.718;2023-05-17T14:24:20;20.30;52.00
13928;DHT22;7036;50.834;4.718;2023-05-17T14:26:47;20.30;52.10
13928;DHT22;7036;50.834;4.718;2023-05-17T14:29:15;20.30;52.00
13928;DHT22;7036;50.834;4.718;2023-05-17T14:31:43;20.30;52.20
13928;DHT22;7036;50.834;4.718;2023-05-17T14:34:10;20.30;52.10
13928;DHT22;7036;50.834;4.718;2023-05-17T14:36:38;20.40;52.40
13928;DHT22;7036;50.834;4.718;2023-05-17T14:39:05;20.40;52.30
13928;DHT22;7036;50.834;4.718;2023-05-17T14:41:33;20.40;52.40
13928;DHT22;7036;50.834;4.718;2023-05-17T14:44:00;20.40;52.30
13928;DHT22;7036;50.834;4.718;2023-05-17T14:46:29;20.50;52.40
13928;DHT22;7036;50.834;4.718;2023-05-17T14:48:56;20.50;52.30
13928;DHT22;7036;50.834;4.718;2023-05-17T14:51:24;20.50;52.30
13928;DHT22;7036;50.834;4.718;2023-05-17T14:53:52;20.50;52.60
13928;DHT22;7036;50.834;4.718;2023-05-17T14:56:20;20.50;52.50
13928;DHT22;7036;50.834;4.718;2023-05-17T14:58:47;20.60;52.50
13928;DHT22;7036;50.834;4.718;2023-05-17T15:01:15;20.60;52.60
13928;DHT22;7036;50.834;4.718;2023-05-17T15:03:43;20.60;52.60
13928;DHT22;7036;50.834;4.718;2023-05-17T15:06:10;20.60;52.50
13928;DHT22;7036;50.834;4.718;2023-05-17T15:08:37;20.60;52.60
13928;DHT22;7036;50.834;4.718;2023-05-17T15:11:05;20.70;52.70
13928;DHT22;7036;50.834;4.718;2023-05-17T15:13:32;20.70;52.60
13928;DHT22;7036;50.834;4.718;2023-05-17T15:16:02;20.70;52.60
13928;DHT22;7036;50.834;4.718;2023-05-17T15:18:28;20.70;52.70
13928;DHT22;7036;50.834;4.718;2023-05-17T15:20:54;20.80;52.70
13928;DHT22;7036;50.834;4.718;2023-05-17T15:23:22;20.80;52.70
13928;DHT22;7036;50.834;4.718;2023-05-17T15:25:49;20.80;52.70
13928;DHT22;7036;50.834;4.718;2023-05-17T15:28:16;20.80;52.70
13928;DHT22;7036;50.834;4.718;2023-05-17T15:30:43;20.80;52.80
13928;DHT22;7036;50.834;4.718;2023-05-17T15:33:11;20.80;52.90
13928;DHT22;7036;50.834;4.718;2023-05-17T15:35:42;20.80;52.80
13928;DHT22;7036;50.834;4.718;2023-05-17T15:38:08;20.80;52.30
13928;DHT22;7036;50.834;4.718;2023-05-17T15:40:36;20.80;50.00
13928;DHT22;7036;50.834;4.718;2023-05-17T15:43:03;20.70;49.30
13928;DHT22;7036;50.834;4.718;2023-05-17T15:45:31;20.60;48.70
13928;DHT22;7036;50.834;4.718;2023-05-17T15:47:58;20.60;48.60
13928;DHT22;7036;50.834;4.718;2023-05-17T15:50:26;20.60;48.50
13928;DHT22;7036;50.834;4.718;2023-05-17T15:52:53;20.60;48.40
13928;DHT22;7036;50.834;4.718;2023-05-17T15:55:20;20.60;47.90
13928;DHT22;7036;50.834;4.718;2023-05-17T15:57:48;20.60;47.20
13928;DHT22;7036;50.834;4.718;2023-05-17T16:00:15;20.60;47.00
13928;DHT22;7036;50.834;4.718;2023-05-17T16:02:44;20.50;47.00
13928;DHT22;7036;50.834;4.718;2023-05-17T16:05:11;20.50;46.90
13928;DHT22;7036;50.834;4.718;2023-05-17T16:07:39;20.50;46.50
13928;DHT22;7036;50.834;4.718;2023-05-17T16:10:07;20.50;46.40
13928;DHT22;7036;50.834;4.718;2023-05-17T16:12:34;20.50;46.50
13928;DHT22;7036;50.834;4.718;2023-05-17T16:15:02;20.50;46.40